createdAt,value
2023-03-22T00:01:37.892Z,97955.81
2023-03-22T00:04:04.963Z,97953.22
2023-03-22T00:06:31.841Z,97951.88
2023-03-22T00:08:58.933Z,97943.34
2023-03-22T00:11:26.045Z,97947.41
2023-03-22T00:13:53.823Z,97950.94
2023-03-22T00:16:21.968Z,97952.75
2023-03-22T00:18:49.002Z,97957.38
2023-03-22T00:21:16.842Z,97955.16
2023-03-22T00:23:44.744Z,97952.22
2023-03-22T00:26:12.603Z,97950.09
2023-03-22T00:28:39.778Z,97948.34
2023-03-22T00:31:07.355Z,97954.72
2023-03-22T00:33:34.621Z,97943.53
2023-03-22T00:36:07.182Z,97944.97
2023-03-22T00:38:42.932Z,97951.19
2023-03-22T00:41:13.963Z,97949.69
2023-03-22T00:43:40.962Z,97951.66
2023-03-22T00:46:08.625Z,97936.13
2023-03-22T00:48:35.643Z,97939.78
2023-03-22T00:51:02.947Z,97939.66
2023-03-22T00:53:29.893Z,97936.00
2023-03-22T00:55:57.388Z,97940.91
2023-03-22T00:58:24.609Z,97944.44
2023-03-22T01:00:51.954Z,97931.44
2023-03-22T01:03:18.912Z,97931.00
2023-03-22T01:05:46.487Z,97931.34
2023-03-22T01:08:15.014Z,97937.00
2023-03-22T01:10:42.696Z,97925.31
2023-03-22T01:13:11.448Z,97920.91
2023-03-22T01:15:38.478Z,97925.53
2023-03-22T01:18:05.720Z,97934.75
2023-03-22T01:20:32.669Z,97930.28
2023-03-22T01:22:59.802Z,97925.59
2023-03-22T01:25:26.686Z,97925.41
2023-03-22T01:27:54.233Z,97923.16
2023-03-22T01:30:21.148Z,97930.34
2023-03-22T01:32:48.062Z,97920.25
2023-03-22T01:35:14.961Z,97916.47
2023-03-22T01:37:41.881Z,97914.53
2023-03-22T01:40:10.383Z,97913.34
2023-03-22T01:42:37.261Z,97915.13
2023-03-22T01:45:19.049Z,97915.56
2023-03-22T01:47:55.796Z,97908.38
2023-03-22T01:50:23.612Z,97916.47
2023-03-22T01:52:51.222Z,97909.53
2023-03-22T01:55:22.878Z,97914.34
2023-03-22T01:57:50.238Z,97912.47
2023-03-22T02:00:19.125Z,97909.81
2023-03-22T02:02:48.850Z,97912.84
2023-03-22T02:05:15.948Z,97905.91
2023-03-22T02:07:43.827Z,97910.28
2023-03-22T02:10:13.426Z,97904.97
2023-03-22T02:13:08.408Z,97912.66
2023-03-22T02:15:43.045Z,97905.69
2023-03-22T02:18:28.565Z,97904.72
2023-03-22T02:21:13.307Z,97913.56
2023-03-22T02:24:01.493Z,97913.94
2023-03-22T02:26:53.540Z,97913.72
2023-03-22T02:29:30.208Z,97921.03
2023-03-22T02:32:04.718Z,97922.94
2023-03-22T02:34:31.492Z,97925.25
2023-03-22T02:36:58.143Z,97928.97
2023-03-22T02:39:47.591Z,97922.09
2023-03-22T02:42:17.585Z,97922.13
2023-03-22T02:45:11.610Z,97917.63
2023-03-22T02:47:38.753Z,97921.00
2023-03-22T02:50:11.461Z,97922.88
2023-03-22T02:52:47.642Z,97920.56
2023-03-22T02:55:21.882Z,97919.16
2023-03-22T02:58:10.567Z,97920.75
2023-03-22T03:00:39.084Z,97925.69
2023-03-22T03:03:11.497Z,97930.59
2023-03-22T03:06:02.836Z,97925.53
2023-03-22T03:08:31.093Z,97930.66
2023-03-22T03:10:57.949Z,97927.16
2023-03-22T03:13:24.812Z,97928.16
2023-03-22T03:15:55.360Z,97936.47
2023-03-22T03:18:41.227Z,97926.16
2023-03-22T03:21:23.315Z,97928.91
2023-03-22T03:24:28.146Z,97935.87
2023-03-22T03:27:01.066Z,97929.69
2023-03-22T03:29:43.066Z,97936.47
2023-03-22T03:32:19.967Z,97929.69
2023-03-22T03:34:51.555Z,97926.38
2023-03-22T03:37:39.330Z,97932.53
2023-03-22T03:40:13.002Z,97937.59
2023-03-22T03:42:44.510Z,97934.38
2023-03-22T03:45:11.764Z,97943.03
2023-03-22T03:47:38.717Z,97943.53
2023-03-22T03:50:06.445Z,97942.97
2023-03-22T03:52:33.312Z,97950.56
2023-03-22T03:55:00.186Z,97939.62
2023-03-22T03:57:27.326Z,97940.25
2023-03-22T03:59:54.381Z,97937.13
2023-03-22T04:02:21.256Z,97938.94
2023-03-22T04:04:48.264Z,97944.28
2023-03-22T04:07:15.424Z,97942.63
2023-03-22T04:09:42.393Z,97947.50
2023-03-22T04:12:11.892Z,97951.72
2023-03-22T04:14:38.830Z,97957.63
2023-03-22T04:17:05.820Z,97957.75
2023-03-22T04:19:32.738Z,97958.63
2023-03-22T04:22:00.421Z,97961.91
2023-03-22T04:24:27.341Z,97950.69
2023-03-22T04:26:54.350Z,97954.25
2023-03-22T04:29:22.219Z,97952.19
2023-03-22T04:31:49.079Z,97953.81
2023-03-22T04:34:15.920Z,97951.88
2023-03-22T04:36:42.830Z,97952.88
2023-03-22T04:39:11.135Z,97948.53
2023-03-22T04:41:38.244Z,97943.31
2023-03-22T04:44:06.372Z,97944.44
2023-03-22T04:46:35.603Z,97948.53
2023-03-22T04:49:03.518Z,97954.91
2023-03-22T04:51:32.219Z,97952.72
2023-03-22T04:53:59.173Z,97954.78
2023-03-22T04:56:27.054Z,97962.72
2023-03-22T04:58:54.130Z,97965.75
2023-03-22T05:01:21.143Z,97969.03
2023-03-22T05:03:48.090Z,97965.41
2023-03-22T05:06:15.709Z,97967.81
2023-03-22T05:08:42.896Z,97976.00
2023-03-22T05:11:16.794Z,97975.47
2023-03-22T05:13:43.747Z,97969.81
2023-03-22T05:16:11.096Z,97973.94
2023-03-22T05:18:42.566Z,97972.41
2023-03-22T05:21:18.077Z,97973.25
2023-03-22T05:23:45.966Z,97974.19
2023-03-22T05:26:16.265Z,97973.25
2023-03-22T05:28:44.293Z,97967.63
2023-03-22T05:31:14.737Z,97971.47
2023-03-22T05:33:42.010Z,97973.66
2023-03-22T05:36:09.693Z,97971.25
2023-03-22T05:38:36.598Z,97984.50
2023-03-22T05:41:03.742Z,97986.69
2023-03-22T05:43:30.765Z,97982.63
2023-03-22T05:45:57.604Z,97985.06
2023-03-22T05:48:24.506Z,97982.00
2023-03-22T05:50:51.434Z,97982.22
2023-03-22T05:53:18.320Z,97989.28
2023-03-22T05:55:45.179Z,97987.06
2023-03-22T05:58:13.126Z,97997.84
2023-03-22T06:00:40.498Z,97992.41
2023-03-22T06:03:08.150Z,97993.28
2023-03-22T06:05:36.802Z,97998.69
2023-03-22T06:08:04.347Z,97998.63
2023-03-22T06:10:31.294Z,98006.41
2023-03-22T06:12:58.197Z,98005.16
2023-03-22T06:15:25.099Z,98002.97
2023-03-22T06:17:52.013Z,98001.84
2023-03-22T06:20:19.624Z,98008.72
2023-03-22T06:22:46.549Z,98005.50
2023-03-22T06:25:14.917Z,98006.13
2023-03-22T06:27:41.843Z,97997.63
2023-03-22T06:30:09.189Z,98012.19
2023-03-22T06:32:36.218Z,98015.91
2023-03-22T06:35:03.066Z,98012.19
2023-03-22T06:37:29.932Z,98012.84
2023-03-22T06:39:56.790Z,98013.88
2023-03-22T06:42:23.626Z,98012.56
2023-03-22T06:44:50.535Z,98014.91
2023-03-22T06:47:17.420Z,98012.31
2023-03-22T06:49:44.256Z,98011.06
2023-03-22T06:52:11.140Z,98023.94
2023-03-22T06:54:37.997Z,98023.16
2023-03-22T06:57:04.864Z,98031.44
2023-03-22T06:59:31.728Z,98033.47
2023-03-22T07:01:58.649Z,98032.69
2023-03-22T07:04:25.891Z,98043.59
2023-03-22T07:06:52.798Z,98039.50
2023-03-22T07:09:19.894Z,98034.84
2023-03-22T07:11:47.138Z,98034.59
2023-03-22T07:14:14.294Z,98038.28
2023-03-22T07:16:41.204Z,98039.12
2023-03-22T07:19:08.162Z,98039.09
2023-03-22T07:21:35.010Z,98045.41
2023-03-22T07:24:01.959Z,98041.09
2023-03-22T07:26:30.741Z,98041.63
2023-03-22T07:28:57.625Z,98039.53
2023-03-22T07:31:24.537Z,98046.31
2023-03-22T07:33:52.360Z,98051.13
2023-03-22T07:36:23.970Z,98042.53
2023-03-22T07:38:51.824Z,98044.19
2023-03-22T07:41:19.129Z,98042.81
2023-03-22T07:43:55.191Z,98040.59
2023-03-22T07:46:25.328Z,98042.44
2023-03-22T07:48:52.219Z,98039.41
2023-03-22T07:51:19.433Z,98041.72
2023-03-22T07:53:46.359Z,98036.69
2023-03-22T07:56:13.223Z,98042.53
2023-03-22T07:58:42.559Z,98044.22
2023-03-22T08:01:09.543Z,98048.72
2023-03-22T08:03:37.739Z,98050.31
2023-03-22T08:06:08.253Z,98039.97
2023-03-22T08:08:37.066Z,98049.22
2023-03-22T08:11:07.712Z,98048.34
2023-03-22T08:13:37.076Z,98047.53
2023-03-22T08:16:04.277Z,98042.56
2023-03-22T08:18:31.546Z,98042.94
2023-03-22T08:20:59.882Z,98049.22
2023-03-22T08:23:40.146Z,98063.75
2023-03-22T08:26:08.521Z,98052.06
2023-03-22T08:28:35.662Z,98050.16
2023-03-22T08:31:09.710Z,98056.22
2023-03-22T08:33:36.567Z,98056.31
2023-03-22T08:36:08.813Z,98069.06
2023-03-22T08:38:35.794Z,98062.03
2023-03-22T08:41:03.509Z,98073.00
2023-03-22T08:43:30.436Z,98071.09
2023-03-22T08:45:57.944Z,98061.16
2023-03-22T08:48:25.206Z,98066.97
2023-03-22T08:50:52.129Z,98070.69
2023-03-22T08:53:19.020Z,98066.81
2023-03-22T08:55:45.859Z,98072.31
2023-03-22T08:58:13.628Z,98059.59
2023-03-22T09:00:48.490Z,98062.09
2023-03-22T09:03:16.344Z,98063.03
2023-03-22T09:05:43.322Z,98059.56
2023-03-22T09:08:18.256Z,98063.84
2023-03-22T09:10:51.978Z,98058.97
2023-03-22T09:13:19.386Z,98053.44
2023-03-22T09:15:46.451Z,98051.34
2023-03-22T09:18:14.116Z,98054.88
2023-03-22T09:20:41.178Z,98054.81
2023-03-22T09:23:08.255Z,98051.78
2023-03-22T09:25:35.527Z,98052.69
2023-03-22T09:28:02.704Z,98051.97
2023-03-22T09:30:29.746Z,98048.28
2023-03-22T09:32:57.725Z,98052.25
2023-03-22T09:35:24.813Z,98046.00
2023-03-22T09:37:53.742Z,98047.38
2023-03-22T09:40:26.085Z,98047.88
2023-03-22T09:42:55.642Z,98047.47
2023-03-22T09:45:38.677Z,98046.25
2023-03-22T09:48:39.783Z,98045.06
2023-03-22T09:51:11.474Z,98034.19
2023-03-22T09:53:41.206Z,98043.53
2023-03-22T09:56:15.831Z,98041.00
2023-03-22T09:59:19.974Z,98041.47
2023-03-22T10:01:59.966Z,98043.53
2023-03-22T10:05:30.059Z,98035.19
2023-03-22T10:08:05.603Z,98027.44
2023-03-22T10:10:38.153Z,98025.78
2023-03-22T10:16:07.578Z,98020.88
2023-03-22T10:18:37.654Z,98019.47
2023-03-22T10:21:07.565Z,98025.88
2023-03-22T10:23:42.245Z,98015.34
2023-03-22T10:26:17.559Z,98019.44
2023-03-22T10:28:45.739Z,98016.56
2023-03-22T10:31:21.387Z,98022.22
2023-03-22T10:33:59.109Z,98023.56
2023-03-22T10:36:33.507Z,98026.13
2023-03-22T10:39:07.248Z,98015.84
2023-03-22T10:41:36.726Z,98017.53
2023-03-22T10:44:05.315Z,98020.47
2023-03-22T10:46:37.511Z,98017.59
2023-03-22T10:49:05.444Z,98021.53
2023-03-22T10:51:46.770Z,98016.19
2023-03-22T10:54:15.637Z,98022.66
2023-03-22T10:56:44.319Z,98015.66
2023-03-22T10:59:49.898Z,98012.56
2023-03-22T11:02:28.847Z,98010.31
2023-03-22T11:04:58.813Z,98008.75
2023-03-22T11:07:40.707Z,98014.88
2023-03-22T11:10:10.535Z,98010.06
2023-03-22T11:12:40.214Z,98012.25
2023-03-22T11:15:11.520Z,98015.84
2023-03-22T11:17:39.205Z,98015.62
2023-03-22T11:20:07.833Z,98011.44
2023-03-22T11:22:40.373Z,98008.69
2023-03-22T11:25:14.524Z,98000.56
2023-03-22T11:27:57.330Z,98000.53
2023-03-22T11:30:27.311Z,97990.59
2023-03-22T11:33:19.455Z,97989.56
2023-03-22T11:35:53.531Z,97982.38
2023-03-22T11:38:41.172Z,97982.97
2023-03-22T11:41:08.848Z,97977.12
2023-03-22T11:43:48.501Z,97975.81
2023-03-22T11:46:19.466Z,97972.09
2023-03-22T11:48:48.221Z,97973.84
2023-03-22T11:51:38.998Z,97972.53
2023-03-22T11:54:10.596Z,97966.97
2023-03-22T11:56:42.286Z,97975.59
2023-03-22T11:59:14.573Z,97966.47
2023-03-22T12:01:55.439Z,97966.31
2023-03-22T12:04:27.203Z,97963.34
2023-03-22T12:06:59.774Z,97957.91
2023-03-22T12:09:41.400Z,97967.41
2023-03-22T12:12:14.245Z,97961.56
2023-03-22T12:14:51.017Z,97967.72
2023-03-22T12:17:41.168Z,97964.41
2023-03-22T12:20:34.387Z,97956.16
2023-03-22T12:23:02.254Z,97951.84
2023-03-22T12:25:34.880Z,97951.22
2023-03-22T12:28:09.088Z,97948.06
2023-03-22T12:30:56.510Z,97949.25
2023-03-22T12:33:33.478Z,97951.91
2023-03-22T12:36:03.536Z,97947.47
2023-03-22T12:38:38.482Z,97938.81
2023-03-22T12:41:09.758Z,97938.38
2023-03-22T12:43:46.517Z,97935.84
2023-03-22T12:46:26.075Z,97933.25
2023-03-22T12:48:58.169Z,97928.41
2023-03-22T12:51:25.249Z,97931.88
2023-03-22T12:53:55.436Z,97940.34
2023-03-22T12:56:25.162Z,97935.87
2023-03-22T12:59:04.629Z,97924.56
2023-03-22T13:01:45.812Z,97924.69
2023-03-22T13:04:44.844Z,97919.69
2023-03-22T13:07:32.160Z,97913.09
2023-03-22T13:10:00.432Z,97909.62
2023-03-22T13:12:30.567Z,97906.38
2023-03-22T13:15:41.184Z,97906.59
2023-03-22T13:18:38.347Z,97906.69
2023-03-22T13:21:29.546Z,97907.53
2023-03-22T13:24:02.278Z,97900.41
2023-03-22T13:26:45.726Z,97901.91
2023-03-22T13:29:20.985Z,97904.19
2023-03-22T13:31:58.523Z,97897.47
2023-03-22T13:34:36.301Z,97896.75
2023-03-22T13:37:05.441Z,97900.25
2023-03-22T13:39:34.877Z,97899.22
2023-03-22T13:42:17.049Z,97905.75
2023-03-22T13:44:46.230Z,97901.59
2023-03-22T13:47:31.821Z,97904.06
2023-03-22T13:50:02.277Z,97895.03
2023-03-22T13:52:38.672Z,97898.53
2023-03-22T13:55:18.511Z,97890.50
2023-03-22T13:57:59.258Z,97885.25
2023-03-22T14:00:34.290Z,97890.41
2023-03-22T14:03:06.484Z,97888.03
2023-03-22T14:05:36.689Z,97880.44
2023-03-22T14:08:04.487Z,97877.72
2023-03-22T14:10:44.838Z,97880.41
2023-03-22T14:13:32.349Z,97873.06
2023-03-22T14:16:36.229Z,97862.19
2023-03-22T14:19:05.743Z,97868.81
2023-03-22T14:21:39.166Z,97858.13
